Time;durP1;ratioP1;P1;durP2;ratioP2;P2;SDS_P1;SDS_P2;PMS_P1;PMS_P2;Temp;Humidity;BMP_temperature;BMP_pressure;BME280_temperature;BME280_humidity;BME280_pressure;Samples;Min_cycle;Max_cycle;Signal;HPM_P1;HPM_P2
2023/08/21 00:02:23;;;;;;;5.53;1.90;;;23.40;84.50;;;;;;5055291;28;20462;-59
2023/08/21 00:04:51;;;;;;;7.30;1.90;;;23.40;84.50;;;;;;5055244;28;20532;-59
2023/08/21 00:07:17;;;;;;;3.13;2.70;;;23.30;84.90;;;;;;5055243;28;20445;-59
2023/08/21 00:09:44;;;;;;;3.83;2.40;;;23.30;85.10;;;;;;5055172;28;20446;-59
2023/08/21 00:12:11;;;;;;;6.03;2.13;;;23.20;84.70;;;;;;5055097;28;20473;-59
2023/08/21 00:14:37;;;;;;;3.60;2.17;;;23.10;84.80;;;;;;5055102;28;20453;-60
2023/08/21 00:17:04;;;;;;;2.70;2.10;;;23.10;86.00;;;;;;5054664;28;20857;-59
2023/08/21 00:19:31;;;;;;;5.10;2.53;;;23.10;86.50;;;;;;5054993;28;20517;-60
2023/08/21 00:22:00;;;;;;;3.80;2.50;;;23.10;86.20;;;;;;5054803;28;20489;-59
2023/08/21 00:24:27;;;;;;;3.20;1.87;;;23.10;86.30;;;;;;5054659;28;20458;-59
2023/08/21 00:26:53;;;;;;;3.30;2.33;;;23.00;86.00;;;;;;5054805;28;20540;-59
2023/08/21 00:29:20;;;;;;;4.70;1.73;;;22.90;86.50;;;;;;5054875;28;20445;-59
2023/08/21 00:31:47;;;;;;;4.60;2.87;;;23.00;86.80;;;;;;5055987;28;20476;-60
2023/08/21 00:34:13;;;;;;;4.10;2.30;;;23.00;87.00;;;;;;5056369;28;20453;-59
2023/08/21 00:36:40;;;;;;;3.37;2.27;;;23.00;87.20;;;;;;5056029;28;20449;-61
2023/08/21 00:39:08;;;;;;;4.40;2.20;;;22.90;86.70;;;;;;5055161;28;20481;-60
2023/08/21 00:41:35;;;;;;;3.47;2.23;;;22.80;86.30;;;;;;5054115;28;20462;-59
2023/08/21 00:44:01;;;;;;;2.80;2.40;;;22.80;86.80;;;;;;5054187;28;20947;-59
2023/08/21 00:46:28;;;;;;;5.00;2.70;;;22.80;87.90;;;;;;5053955;28;20939;-59
2023/08/21 00:48:55;;;;;;;4.13;2.10;;;22.80;87.70;;;;;;5053906;28;20438;-60
2023/08/21 00:51:21;;;;;;;4.90;2.50;;;22.70;87.20;;;;;;5054289;28;20461;-59
2023/08/21 00:53:48;;;;;;;7.23;2.80;;;22.60;87.20;;;;;;5054228;28;20444;-59
2023/08/21 00:56:16;;;;;;;3.97;2.47;;;22.60;88.40;;;;;;5053581;28;20448;-60
2023/08/21 00:58:44;;;;;;;2.40;2.20;;;22.60;88.40;;;;;;5054142;28;20486;-60
2023/08/21 01:01:11;;;;;;;6.50;2.50;;;22.60;88.40;;;;;;5054397;28;20462;-60
2023/08/21 01:03:38;;;;;;;4.13;2.13;;;22.60;88.60;;;;;;5053949;28;20449;-59
2023/08/21 01:06:05;;;;;;;3.00;2.10;;;22.50;88.70;;;;;;5054109;28;20499;-59
2023/08/21 01:08:41;;;;;;;4.37;2.47;;;22.50;88.90;;;;;;5053964;28;20446;-60
2023/08/21 01:11:16;;;;;;;4.30;2.13;;;22.40;89.10;;;;;;5054169;28;20457;-59
2023/08/21 01:13:52;;;;;;;5.10;2.50;;;22.40;89.40;;;;;;5053985;28;20495;-60
2023/08/21 01:16:22;;;;;;;7.27;2.43;;;22.40;89.90;;;;;;5053901;28;20914;-60
2023/08/21 01:18:49;;;;;;;3.00;2.20;;;22.40;90.00;;;;;;5054012;28;20494;-60
2023/08/21 01:21:17;;;;;;;3.23;2.40;;;22.40;90.00;;;;;;5054095;28;20469;-60
2023/08/21 01:23:45;;;;;;;2.80;1.87;;;22.30;90.00;;;;;;5053914;28;20449;-59
2023/08/21 01:26:11;;;;;;;6.20;2.60;;;22.30;90.10;;;;;;5054037;28;20943;-59
2023/08/21 01:28:38;;;;;;;5.60;2.57;;;22.20;90.00;;;;;;5054107;28;20527;-59
2023/08/21 01:31:10;;;;;;;4.90;2.80;;;22.10;90.00;;;;;;5054025;28;20461;-59
2023/08/21 01:33:43;;;;;;;4.73;2.37;;;22.20;90.20;;;;;;5053581;28;20430;-59
2023/08/21 01:36:09;;;;;;;7.13;2.70;;;22.20;90.40;;;;;;5053897;28;20422;-59
2023/08/21 01:38:37;;;;;;;2.70;2.17;;;22.20;90.40;;;;;;5053292;28;20485;-59
2023/08/21 01:41:05;;;;;;;12.57;3.00;;;22.10;90.40;;;;;;5053294;28;20469;-59
2023/08/21 01:43:31;;;;;;;3.20;2.20;;;22.10;90.30;;;;;;5053496;28;20448;-60
2023/08/21 01:45:58;;;;;;;2.50;2.00;;;22.10;90.60;;;;;;5053335;28;20849;-59
2023/08/21 01:48:25;;;;;;;5.43;2.60;;;22.10;90.80;;;;;;5053186;28;20951;-59
2023/08/21 01:50:52;;;;;;;5.27;2.40;;;22.10;90.80;;;;;;5053540;28;20492;-59
2023/08/21 01:53:18;;;;;;;4.23;2.90;;;22.10;90.80;;;;;;5053401;28;20450;-59
2023/08/21 01:55:45;;;;;;;5.80;2.43;;;22.10;90.80;;;;;;5053489;28;20442;-59
2023/08/21 01:58:13;;;;;;;4.70;3.00;;;22.10;90.90;;;;;;5053238;28;20446;-59
2023/08/21 02:00:40;;;;;;;9.20;3.77;;;22.10;90.90;;;;;;5053107;28;20496;-60
2023/08/21 02:03:06;;;;;;;6.10;2.60;;;22.00;90.80;;;;;;5053204;28;20457;-60
2023/08/21 02:05:38;;;;;;;6.40;3.03;;;22.00;91.10;;;;;;5052836;28;20940;-59
2023/08/21 02:08:05;;;;;;;3.93;2.53;;;22.00;91.00;;;;;;5052064;28;20966;-59
2023/08/21 02:10:32;;;;;;;6.83;2.77;;;22.00;90.90;;;;;;5053706;28;20441;-59
2023/08/21 02:12:59;;;;;;;8.00;3.60;;;21.90;90.90;;;;;;5052994;28;20445;-59
2023/08/21 02:15:27;;;;;;;5.67;2.70;;;21.90;91.10;;;;;;5053052;28;20438;-59
2023/08/21 02:17:54;;;;;;;6.43;3.03;;;21.80;91.00;;;;;;5052988;28;20445;-59
2023/08/21 02:20:21;;;;;;;4.40;2.80;;;21.80;91.10;;;;;;5052706;28;21013;-59
2023/08/21 02:22:47;;;;;;;4.40;2.83;;;21.80;91.30;;;;;;5052652;28;20461;-59
2023/08/21 02:25:14;;;;;;;4.00;2.30;;;21.80;91.40;;;;;;5052827;28;20450;-59
2023/08/21 02:27:41;;;;;;;5.90;2.87;;;21.80;91.40;;;;;;5052510;28;20449;-59
2023/08/21 02:30:08;;;;;;;6.30;2.63;;;21.80;91.50;;;;;;5053064;28;20441;-59
2023/08/21 02:32:38;;;;;;;6.23;3.10;;;21.80;91.70;;;;;;5052500;28;20830;-59
2023/08/21 02:35:05;;;;;;;6.23;2.90;;;21.70;91.70;;;;;;5052601;28;20935;-59
2023/08/21 02:37:32;;;;;;;6.13;2.83;;;21.70;91.60;;;;;;5052853;28;20564;-59
2023/08/21 02:39:59;;;;;;;4.63;2.90;;;21.70;91.90;;;;;;5052812;28;20492;-59
2023/08/21 02:42:26;;;;;;;4.53;2.50;;;21.70;91.90;;;;;;5052884;28;20472;-59
2023/08/21 02:44:52;;;;;;;4.73;2.70;;;21.70;91.80;;;;;;5052999;28;20441;-59
2023/08/21 02:47:19;;;;;;;5.00;2.90;;;21.60;91.80;;;;;;5052459;28;20805;-59
2023/08/21 02:49:47;;;;;;;4.73;2.67;;;21.60;91.80;;;;;;5052526;28;20936;-59
2023/08/21 02:52:14;;;;;;;4.83;2.90;;;21.50;91.90;;;;;;5052824;28;20559;-59
2023/08/21 02:54:40;;;;;;;4.57;2.70;;;21.50;92.10;;;;;;5052464;28;20859;-59
2023/08/21 02:57:07;;;;;;;2.80;2.50;;;21.50;92.10;;;;;;5052690;28;20437;-59
2023/08/21 02:59:34;;;;;;;10.93;3.30;;;21.50;92.00;;;;;;5052271;28;20559;-59
2023/08/21 03:02:00;;;;;;;6.27;2.83;;;21.40;91.90;;;;;;5052398;28;20479;-59
2023/08/21 03:04:27;;;;;;;4.57;2.50;;;21.40;92.00;;;;;;5052491;28;20472;-59
2023/08/21 03:06:55;;;;;;;6.60;3.33;;;21.40;92.40;;;;;;5052544;28;20450;-59
2023/08/21 03:09:22;;;;;;;6.33;2.80;;;21.40;92.30;;;;;;5052442;28;20445;-59
2023/08/21 03:11:48;;;;;;;4.10;2.90;;;21.30;92.10;;;;;;5052416;28;20473;-59
2023/08/21 03:14:15;;;;;;;10.80;3.10;;;21.30;92.10;;;;;;5052213;28;20442;-59
2023/08/21 03:16:42;;;;;;;5.23;3.00;;;21.20;92.30;;;;;;5052115;28;20805;-59
2023/08/21 03:19:08;;;;;;;7.73;3.13;;;21.30;92.60;;;;;;5053424;28;20825;-59
2023/08/21 03:21:35;;;;;;;3.20;2.90;;;21.30;92.60;;;;;;5055748;28;20954;-59
2023/08/21 03:24:03;;;;;;;4.57;3.00;;;21.30;92.60;;;;;;5055794;28;20452;-59
2023/08/21 03:26:30;;;;;;;4.60;2.93;;;21.20;92.40;;;;;;5056255;28;20437;-59
2023/08/21 03:28:57;;;;;;;4.53;3.00;;;21.20;92.60;;;;;;5055887;28;20449;-59
2023/08/21 03:31:24;;;;;;;4.63;3.30;;;21.20;92.60;;;;;;5055798;28;20461;-60
2023/08/21 03:33:50;;;;;;;4.80;2.80;;;21.20;92.60;;;;;;5055885;28;20437;-59
2023/08/21 03:36:17;;;;;;;7.47;2.60;;;21.30;92.80;;;;;;5055845;28;20453;-59
2023/08/21 03:38:44;;;;;;;7.30;3.00;;;21.20;92.90;;;;;;5055751;28;20500;-60
2023/08/21 03:41:12;;;;;;;6.13;2.93;;;21.20;92.90;;;;;;5055571;28;20489;-59
2023/08/21 03:43:39;;;;;;;4.43;2.80;;;21.10;92.80;;;;;;5055699;28;20445;-59
2023/08/21 03:46:06;;;;;;;5.17;3.17;;;21.10;92.80;;;;;;5055433;28;20445;-59
2023/08/21 03:48:32;;;;;;;4.17;2.93;;;21.10;92.90;;;;;;5055827;28;20442;-59
2023/08/21 03:50:59;;;;;;;3.17;2.90;;;21.20;93.10;;;;;;5055238;28;20990;-60
2023/08/21 03:53:25;;;;;;;6.87;3.07;;;21.10;93.20;;;;;;5055109;28;20441;-59
2023/08/21 03:55:52;;;;;;;6.87;3.23;;;21.10;93.40;;;;;;5055149;28;20955;-59
2023/08/21 03:58:20;;;;;;;3.03;2.73;;;21.10;93.30;;;;;;5055452;28;20457;-59
2023/08/21 04:00:47;;;;;;;4.13;3.00;;;21.00;93.50;;;;;;5054826;28;21086;-59
2023/08/21 04:03:14;;;;;;;6.53;2.87;;;21.00;93.30;;;;;;5054962;28;20868;-60
2023/08/21 04:05:40;;;;;;;5.50;2.57;;;21.00;93.40;;;;;;5055206;28;20453;-60
2023/08/21 04:08:07;;;;;;;7.50;3.57;;;21.00;93.50;;;;;;5055288;28;20442;-60
2023/08/21 04:10:34;;;;;;;5.53;2.50;;;21.00;93.50;;;;;;5055227;28;20464;-60
2023/08/21 04:13:01;;;;;;;3.87;2.83;;;21.00;93.70;;;;;;5054882;28;20944;-60
2023/08/21 04:15:29;;;;;;;3.83;2.50;;;21.00;93.70;;;;;;5055173;28;20450;-60
2023/08/21 04:17:56;;;;;;;3.40;2.80;;;21.00;93.90;;;;;;5055144;28;20452;-60
2023/08/21 04:20:22;;;;;;;6.70;3.20;;;21.00;93.90;;;;;;5055248;28;20830;-60
2023/08/21 04:22:49;;;;;;;5.10;2.60;;;21.00;93.90;;;;;;5054915;28;20453;-60
2023/08/21 04:25:16;;;;;;;4.57;3.00;;;21.00;93.80;;;;;;5055027;28;20453;-60
2023/08/21 04:27:43;;;;;;;4.10;2.60;;;20.90;93.90;;;;;;5055186;28;20453;-60
2023/08/21 04:30:10;;;;;;;5.47;3.10;;;20.90;94.00;;;;;;5054319;28;20446;-60
2023/08/21 04:32:39;;;;;;;2.43;2.13;;;21.00;93.90;;;;;;5054740;28;20465;-60
2023/08/21 04:35:08;;;;;;;8.73;3.30;;;21.00;93.90;;;;;;5054765;28;20472;-60
2023/08/21 04:37:34;;;;;;;6.23;3.07;;;20.90;93.80;;;;;;5054681;28;20445;-60
2023/08/21 04:40:01;;;;;;;4.27;2.80;;;20.90;93.80;;;;;;5054789;28;20490;-60
2023/08/21 04:42:28;;;;;;;4.77;2.63;;;20.90;94.00;;;;;;5054665;28;20470;-60
2023/08/21 04:44:55;;;;;;;4.00;2.30;;;20.90;93.90;;;;;;5055149;28;20449;-60
2023/08/21 04:47:23;;;;;;;6.10;2.77;;;20.90;93.90;;;;;;5055291;28;20453;-60
2023/08/21 04:49:51;;;;;;;3.17;2.87;;;20.90;94.00;;;;;;5054755;28;20446;-60
2023/08/21 04:52:18;;;;;;;9.23;2.63;;;20.90;94.00;;;;;;5054758;28;20466;-60
2023/08/21 04:54:45;;;;;;;4.20;2.10;;;21.00;94.00;;;;;;5054335;28;20456;-60
2023/08/21 04:57:11;;;;;;;3.90;2.50;;;20.90;93.80;;;;;;5054317;28;20441;-60
2023/08/21 04:59:39;;;;;;;4.93;2.97;;;20.90;93.90;;;;;;5053999;28;21021;-60
2023/08/21 05:02:06;;;;;;;2.87;2.23;;;20.90;94.10;;;;;;5054444;28;20462;-60
2023/08/21 05:04:33;;;;;;;2.90;2.40;;;20.90;94.00;;;;;;5054294;28;20548;-60
2023/08/21 05:07:01;;;;;;;7.03;2.80;;;20.90;94.00;;;;;;5053962;28;20948;-60
2023/08/21 05:09:28;;;;;;;7.10;2.63;;;20.80;94.00;;;;;;5054214;28;20448;-60
2023/08/21 05:11:55;;;;;;;4.80;2.60;;;20.80;94.00;;;;;;5054007;28;20458;-60
2023/08/21 05:14:22;;;;;;;5.93;2.63;;;20.80;94.20;;;;;;5054077;28;20441;-60
2023/08/21 05:16:49;;;;;;;6.10;2.47;;;20.80;94.30;;;;;;5054008;28;20445;-60
2023/08/21 05:19:16;;;;;;;4.57;2.60;;;20.80;94.30;;;;;;5054005;28;20445;-60
2023/08/21 05:21:43;;;;;;;5.53;2.90;;;20.80;94.30;;;;;;5053919;28;20497;-60
2023/08/21 05:24:11;;;;;;;15.03;3.00;;;20.80;94.40;;;;;;5054175;28;20442;-60
2023/08/21 05:26:38;;;;;;;3.77;2.27;;;20.80;94.40;;;;;;5053880;28;20470;-60
2023/08/21 05:29:05;;;;;;;2.73;2.33;;;20.80;94.40;;;;;;5053856;28;20453;-60
2023/08/21 05:31:32;;;;;;;4.53;2.97;;;20.80;94.40;;;;;;5053676;28;20507;-60
2023/08/21 05:33:58;;;;;;;4.30;2.70;;;20.80;94.60;;;;;;5053934;28;20441;-60
2023/08/21 05:36:25;;;;;;;4.20;2.97;;;20.80;94.70;;;;;;5053743;28;20448;-60
2023/08/21 05:38:52;;;;;;;5.70;2.90;;;20.70;94.90;;;;;;5053432;28;20939;-60
2023/08/21 05:41:20;;;;;;;6.70;3.03;;;20.70;95.00;;;;;;5053332;28;20493;-60
2023/08/21 05:43:47;;;;;;;8.57;2.53;;;20.80;95.30;;;;;;5053785;28;20433;-60
2023/08/21 05:46:14;;;;;;;4.87;3.47;;;20.80;95.60;;;;;;5053292;28;20453;-60
2023/08/21 05:48:40;;;;;;;5.83;3.00;;;20.80;95.60;;;;;;5053491;28;20438;-60
2023/08/21 05:51:07;;;;;;;5.40;3.60;;;20.80;95.80;;;;;;5053534;28;20459;-60
2023/08/21 05:53:34;;;;;;;5.70;3.30;;;20.80;96.00;;;;;;5053172;28;20959;-60
2023/08/21 05:56:00;;;;;;;10.20;3.00;;;20.80;96.20;;;;;;5053179;28;20454;-60
2023/08/21 05:58:31;;;;;;;6.27;2.97;;;20.90;96.40;;;;;;5053053;28;20817;-60
2023/08/21 06:00:58;;;;;;;6.63;3.53;;;20.90;96.30;;;;;;5053169;28;20490;-60
2023/08/21 06:03:24;;;;;;;10.93;3.10;;;21.00;96.40;;;;;;5053603;28;20438;-60
2023/08/21 06:05:51;;;;;;;6.10;3.60;;;21.00;96.30;;;;;;5053213;28;20444;-60
2023/08/21 06:08:19;;;;;;;11.40;3.23;;;21.00;96.40;;;;;;5053472;28;20475;-60
2023/08/21 06:10:45;;;;;;;5.40;3.00;;;21.00;96.40;;;;;;5053150;28;20489;-60
2023/08/21 06:13:12;;;;;;;4.90;3.37;;;21.10;95.80;;;;;;5053261;28;20452;-60
2023/08/21 06:15:40;;;;;;;8.10;3.13;;;21.20;95.90;;;;;;5053031;28;20452;-60
2023/08/21 06:18:07;;;;;;;4.93;3.50;;;21.20;95.90;;;;;;5053186;28;20444;-60
2023/08/21 06:20:33;;;;;;;9.27;3.50;;;21.20;95.90;;;;;;5052818;28;20484;-60
2023/08/21 06:23:00;;;;;;;4.27;3.20;;;21.30;96.10;;;;;;5053367;28;20443;-60
2023/08/21 06:25:27;;;;;;;5.10;2.80;;;21.40;96.10;;;;;;5053086;28;20454;-60
2023/08/21 06:27:53;;;;;;;5.33;3.00;;;21.40;95.90;;;;;;5052840;28;20962;-60
2023/08/21 06:30:20;;;;;;;8.80;3.07;;;21.50;95.70;;;;;;5052711;28;20857;-60
2023/08/21 06:32:48;;;;;;;4.00;3.03;;;21.60;95.40;;;;;;5052635;28;20940;-60
2023/08/21 06:35:17;;;;;;;8.50;3.17;;;21.70;95.40;;;;;;5053050;28;20445;-60
2023/08/21 06:37:44;;;;;;;4.40;2.77;;;21.70;95.10;;;;;;5053106;28;20449;-60
2023/08/21 06:40:11;;;;;;;6.43;3.70;;;21.80;94.90;;;;;;5052943;28;20492;-60
2023/08/21 06:42:38;;;;;;;8.07;3.00;;;21.90;94.70;;;;;;5052914;28;20484;-60
2023/08/21 06:45:06;;;;;;;6.50;3.20;;;22.00;94.40;;;;;;5052968;28;20449;-60
2023/08/21 06:47:33;;;;;;;8.93;3.60;;;22.00;94.50;;;;;;5052954;28;20445;-60
2023/08/21 06:50:01;;;;;;;7.77;3.00;;;22.10;94.10;;;;;;5052959;28;20450;-60
2023/08/21 06:52:28;;;;;;;5.60;2.80;;;22.20;93.90;;;;;;5052763;28;20461;-60
2023/08/21 06:54:54;;;;;;;6.47;4.00;;;22.20;94.10;;;;;;5055274;28;20444;-60
2023/08/21 06:57:22;;;;;;;6.33;3.43;;;22.30;93.80;;;;;;5056688;28;20445;-60
2023/08/21 06:59:48;;;;;;;6.27;3.73;;;22.40;93.60;;;;;;5056671;28;20536;-60
2023/08/21 07:02:15;;;;;;;5.37;3.77;;;22.50;93.70;;;;;;5056129;28;20481;-60
2023/08/21 07:04:42;;;;;;;7.13;2.90;;;22.60;93.50;;;;;;5056485;28;20453;-60
2023/08/21 07:07:10;;;;;;;5.70;3.70;;;22.60;93.40;;;;;;5056197;28;20842;-60
2023/08/21 07:09:36;;;;;;;5.03;3.40;;;22.70;93.30;;;;;;5056465;28;20444;-60
2023/08/21 07:12:03;;;;;;;8.20;3.30;;;22.80;93.20;;;;;;5056282;28;20473;-60
2023/08/21 07:14:30;;;;;;;8.77;4.40;;;22.90;93.20;;;;;;5056091;28;20477;-60
2023/08/21 07:16:57;;;;;;;8.90;3.67;;;23.00;92.90;;;;;;5056444;28;20849;-61
2023/08/21 07:19:23;;;;;;;4.50;3.57;;;23.10;92.80;;;;;;5056166;28;20438;-59
2023/08/21 07:21:50;;;;;;;10.33;4.00;;;23.20;92.60;;;;;;5055913;28;20869;-60
2023/08/21 07:24:18;;;;;;;4.63;3.83;;;23.20;92.30;;;;;;5055935;28;20847;-59
2023/08/21 07:26:45;;;;;;;4.40;3.50;;;23.40;92.50;;;;;;5056213;28;20449;-59
2023/08/21 07:29:11;;;;;;;6.37;3.17;;;23.50;92.10;;;;;;5056161;28;20446;-58
2023/08/21 07:31:38;;;;;;;9.60;4.00;;;23.70;92.40;;;;;;5055937;28;20473;-59
2023/08/21 07:34:05;;;;;;;7.43;3.77;;;23.90;91.70;;;;;;5055909;28;20438;-59
2023/08/21 07:36:33;;;;;;;6.80;3.50;;;24.00;90.70;;;;;;5055682;28;21039;-59
2023/08/21 07:38:59;;;;;;;7.87;3.73;;;24.10;90.80;;;;;;5055907;28;20522;-59
2023/08/21 07:41:27;;;;;;;6.97;3.33;;;24.30;90.80;;;;;;5055710;28;20485;-59
2023/08/21 07:43:54;;;;;;;8.10;3.60;;;24.40;90.40;;;;;;5055960;28;20450;-59
2023/08/21 07:46:21;;;;;;;7.03;4.00;;;24.60;90.40;;;;;;5055850;28;20935;-59
2023/08/21 07:48:48;;;;;;;5.50;2.80;;;24.70;89.90;;;;;;5055808;28;20449;-59
2023/08/21 07:51:14;;;;;;;11.43;3.57;;;24.90;87.70;;;;;;5055313;28;20472;-60
2023/08/21 07:53:41;;;;;;;6.47;3.47;;;25.10;87.30;;;;;;5055684;28;20499;-60
2023/08/21 07:56:08;;;;;;;3.73;3.33;;;25.20;86.80;;;;;;5055642;28;20453;-60
2023/08/21 07:58:36;;;;;;;7.50;3.10;;;25.30;84.30;;;;;;5055605;28;20452;-60
2023/08/21 08:01:04;;;;;;;4.87;2.67;;;25.40;83.80;;;;;;5055696;28;20493;-60
2023/08/21 08:03:31;;;;;;;10.30;4.50;;;25.50;83.40;;;;;;5055541;28;20943;-59
2023/08/21 08:05:58;;;;;;;7.60;3.53;;;25.70;82.80;;;;;;5055497;28;20445;-59
2023/08/21 08:08:25;;;;;;;6.73;3.33;;;25.90;82.80;;;;;;5055708;28;20441;-59
2023/08/21 08:10:51;;;;;;;10.50;3.13;;;26.00;82.10;;;;;;5055403;28;20497;-59
2023/08/21 08:13:18;;;;;;;8.47;3.37;;;26.30;81.60;;;;;;5055294;28;20948;-59
2023/08/21 08:15:46;;;;;;;6.43;3.37;;;26.40;80.40;;;;;;5055310;28;20449;-59
2023/08/21 08:18:14;;;;;;;6.10;3.50;;;26.60;78.60;;;;;;5055256;28;20445;-59
2023/08/21 08:20:41;;;;;;;4.53;3.73;;;26.70;76.60;;;;;;5054796;28;20478;-59
2023/08/21 08:23:07;;;;;;;8.03;3.53;;;26.80;74.90;;;;;;5055201;28;20437;-59
2023/08/21 08:25:34;;;;;;;4.70;3.13;;;26.90;75.60;;;;;;5055061;28;20457;-59
2023/08/21 08:28:01;;;;;;;5.60;3.03;;;27.10;74.40;;;;;;5054976;28;20441;-59
2023/08/21 08:30:27;;;;;;;3.60;2.63;;;27.20;74.30;;;;;;5054875;28;20437;-59
2023/08/21 08:32:55;;;;;;;7.80;3.80;;;27.40;73.70;;;;;;5054902;28;20849;-59
2023/08/21 08:35:22;;;;;;;3.93;2.67;;;27.60;73.00;;;;;;5054810;28;20441;-59
2023/08/21 08:37:49;;;;;;;5.83;3.20;;;27.80;72.30;;;;;;5054760;28;20442;-59
2023/08/21 08:40:16;;;;;;;8.17;3.60;;;28.00;71.70;;;;;;5054775;28;20438;-59
2023/08/21 08:42:42;;;;;;;10.10;3.33;;;28.20;70.30;;;;;;5054601;28;20507;-59
2023/08/21 08:45:12;;;;;;;7.93;3.30;;;28.30;68.70;;;;;;5054704;28;20453;-59
2023/08/21 08:47:41;;;;;;;3.40;2.53;;;28.40;67.40;;;;;;5055111;28;20449;-59
2023/08/21 08:50:10;;;;;;;7.10;4.03;;;28.50;67.00;;;;;;5054637;28;20552;-59
2023/08/21 08:52:38;;;;;;;6.77;2.53;;;28.60;66.70;;;;;;5054385;28;21045;-59
2023/08/21 08:55:06;;;;;;;3.70;2.90;;;28.70;66.00;;;;;;5054437;28;20452;-59
2023/08/21 08:57:33;;;;;;;7.37;2.90;;;28.80;66.30;;;;;;5054331;28;20465;-59
2023/08/21 09:00:00;;;;;;;4.67;2.70;;;29.10;66.30;;;;;;5054089;28;20947;-60
2023/08/21 09:02:27;;;;;;;10.40;3.63;;;29.30;63.80;;;;;;5054213;28;20481;-60
2023/08/21 09:04:54;;;;;;;7.67;3.20;;;29.50;62.40;;;;;;5054219;28;20855;-59
2023/08/21 09:07:22;;;;;;;3.87;2.90;;;29.60;61.50;;;;;;5054232;28;20445;-60
2023/08/21 09:09:52;;;;;;;5.10;2.77;;;29.80;61.60;;;;;;5054166;28;20471;-59
2023/08/21 09:12:19;;;;;;;7.37;3.40;;;29.90;60.20;;;;;;5054432;28;20471;-60
2023/08/21 09:14:47;;;;;;;4.73;3.50;;;30.10;59.40;;;;;;5054115;28;20441;-60
2023/08/21 09:17:14;;;;;;;6.73;2.97;;;30.20;59.00;;;;;;5053644;28;20449;-60
2023/08/21 09:19:41;;;;;;;8.73;2.93;;;30.20;58.60;;;;;;5053922;28;20519;-60
2023/08/21 09:22:12;;;;;;;6.20;3.40;;;30.30;58.30;;;;;;5053557;28;20510;-60
2023/08/21 09:24:41;;;;;;;7.30;3.60;;;30.40;57.60;;;;;;5053596;28;20951;-60
2023/08/21 09:27:17;;;;;;;6.83;2.87;;;30.50;57.00;;;;;;5053890;28;20440;-60
2023/08/21 09:29:46;;;;;;;4.60;3.53;;;30.60;56.90;;;;;;5053795;28;20440;-60
2023/08/21 09:32:15;;;;;;;5.00;3.30;;;30.80;57.10;;;;;;5053240;28;20465;-60
2023/08/21 09:34:42;;;;;;;4.70;3.10;;;31.00;56.20;;;;;;5053421;28;20957;-60
2023/08/21 09:37:10;;;;;;;5.03;3.07;;;31.20;56.30;;;;;;5053713;28;20467;-59
2023/08/21 09:39:39;;;;;;;4.50;2.73;;;31.40;55.20;;;;;;5053314;28;20448;-60
2023/08/21 09:42:07;;;;;;;8.13;3.40;;;31.60;54.40;;;;;;5053512;28;20485;-60
2023/08/21 09:44:39;;;;;;;6.37;4.27;;;31.80;54.10;;;;;;5053536;28;20448;-59
2023/08/21 09:47:09;;;;;;;5.10;3.23;;;31.90;52.50;;;;;;5053282;28;21017;-60
2023/08/21 09:49:36;;;;;;;5.53;2.90;;;32.00;52.30;;;;;;5053496;28;20447;-60
2023/08/21 09:52:04;;;;;;;7.13;3.73;;;32.20;52.60;;;;;;5053415;28;20825;-60
2023/08/21 09:54:32;;;;;;;7.07;3.50;;;32.50;52.60;;;;;;5053562;28;20468;-60
2023/08/21 09:57:03;;;;;;;6.13;3.50;;;32.80;52.00;;;;;;5053367;28;20448;-59
2023/08/21 09:59:30;;;;;;;9.83;3.80;;;33.00;50.30;;;;;;5053292;28;20919;-60
2023/08/21 10:01:59;;;;;;;6.63;3.53;;;33.20;50.00;;;;;;5053079;28;20493;-60
2023/08/21 10:04:28;;;;;;;7.93;4.30;;;33.50;49.60;;;;;;5054056;28;20480;-60
2023/08/21 10:06:56;;;;;;;7.57;3.73;;;33.70;48.50;;;;;;5054858;28;20453;-61
2023/08/21 10:09:25;;;;;;;7.57;3.37;;;33.90;47.40;;;;;;5054882;28;20441;-60
2023/08/21 10:11:54;;;;;;;10.50;4.20;;;34.20;47.70;;;;;;5054510;28;20507;-60
2023/08/21 10:14:23;;;;;;;6.27;3.87;;;34.50;46.50;;;;;;5053800;28;20879;-60
2023/08/21 10:16:52;;;;;;;8.07;4.27;;;34.80;45.60;;;;;;5052882;28;20958;-60
2023/08/21 10:19:19;;;;;;;8.80;3.77;;;35.00;44.10;;;;;;5052836;28;20992;-60
2023/08/21 10:21:48;;;;;;;11.80;4.37;;;35.10;43.50;;;;;;5052844;28;20230;-60
2023/08/21 10:24:27;;;;;;;6.83;4.17;;;35.40;43.70;;;;;;5053112;28;20234;-60
2023/08/21 10:26:54;;;;;;;5.13;3.57;;;35.60;41.30;;;;;;5053145;28;20240;-58
2023/08/21 10:29:22;;;;;;;5.83;3.13;;;35.80;40.60;;;;;;5054782;28;20234;-59
2023/08/21 10:32:00;;;;;;;4.77;3.53;;;36.00;40.80;;;;;;5057303;28;20214;-59
2023/08/21 10:34:33;;;;;;;10.07;3.90;;;36.20;39.00;;;;;;5057246;28;20244;-59
2023/08/21 10:37:12;;;;;;;5.28;3.47;;;36.30;39.00;;;;;;5057139;28;20287;-59
2023/08/21 10:39:39;;;;;;;5.45;3.45;;;36.60;39.50;;;;;;5057319;28;20197;-59
2023/08/21 10:42:09;;;;;;;12.75;4.15;;;36.90;39.50;;;;;;5056821;28;20233;-59
2023/08/21 10:44:55;;;;;;;9.48;3.80;;;37.20;39.30;;;;;;5056834;28;20578;-59
2023/08/21 10:47:23;;;;;;;8.80;3.67;;;37.70;37.70;;;;;;5055782;28;20580;-59
2023/08/21 10:49:52;;;;;;;6.60;3.90;;;38.20;37.70;;;;;;5056793;28;20672;-60
2023/08/21 10:52:23;;;;;;;10.95;4.43;;;38.50;37.30;;;;;;5056411;28;20221;-59
2023/08/21 10:54:51;;;;;;;9.32;3.25;;;38.70;36.30;;;;;;5056807;28;20312;-59
2023/08/21 10:57:18;;;;;;;8.80;3.72;;;39.20;35.30;;;;;;5056389;28;20650;-61
2023/08/21 10:59:54;;;;;;;5.80;3.78;;;39.50;34.60;;;;;;5056659;28;20328;-60
2023/08/21 11:02:21;;;;;;;6.78;3.03;;;39.90;32.10;;;;;;5056820;28;20222;-60
2023/08/21 11:04:48;;;;;;;6.88;3.60;;;40.20;32.20;;;;;;5056248;28;20598;-60
2023/08/21 11:07:15;;;;;;;6.93;3.47;;;40.70;32.40;;;;;;5056616;28;20206;-60
2023/08/21 11:09:42;;;;;;;8.15;3.53;;;41.10;31.50;;;;;;5056511;28;20206;-60
2023/08/21 11:12:11;;;;;;;8.85;4.35;;;41.70;30.60;;;;;;5056441;28;20287;-60
2023/08/21 11:14:39;;;;;;;6.53;3.55;;;41.90;28.20;;;;;;5056371;28;20229;-61
2023/08/21 11:17:08;;;;;;;7.80;3.17;;;42.10;27.50;;;;;;5056482;28;20202;-60
2023/08/21 11:19:36;;;;;;;5.15;2.92;;;42.30;28.00;;;;;;5056192;28;20198;-60
2023/08/21 11:22:05;;;;;;;5.97;3.25;;;42.60;27.30;;;;;;5055377;28;20276;-60
2023/08/21 11:24:39;;;;;;;4.53;3.25;;;43.10;27.40;;;;;;5054943;28;20572;-60
2023/08/21 11:27:06;;;;;;;7.07;3.20;;;43.60;26.30;;;;;;5055089;28;20182;-59
2023/08/21 11:29:37;;;;;;;4.90;2.72;;;44.00;25.80;;;;;;5055043;28;20202;-59
2023/08/21 11:32:08;;;;;;;4.80;2.30;;;44.40;25.70;;;;;;5054990;28;20230;-59
2023/08/21 11:34:36;;;;;;;5.22;3.10;;;44.90;25.40;;;;;;5054962;28;20210;-59
2023/08/21 11:37:04;;;;;;;3.35;2.22;;;45.40;25.30;;;;;;5054872;28;20202;-59
2023/08/21 11:39:40;;;;;;;7.00;2.53;;;45.70;24.60;;;;;;5054216;28;20783;-60
2023/08/21 11:42:11;;;;;;;8.40;2.67;;;46.00;23.30;;;;;;5054828;28;20225;-61
2023/08/21 11:44:50;;;;;;;5.18;2.10;;;46.00;23.20;;;;;;5054876;28;20262;-60
2023/08/21 11:47:18;;;;;;;5.75;2.03;;;46.20;23.20;;;;;;5054523;28;20649;-61
2023/08/21 11:49:49;;;;;;;3.80;1.95;;;46.40;22.80;;;;;;5054378;28;20680;-61
2023/08/21 11:52:20;;;;;;;5.50;2.55;;;46.40;23.20;;;;;;5054313;28;20738;-61
2023/08/21 11:54:49;;;;;;;3.55;2.17;;;46.60;22.60;;;;;;5054666;28;20222;-61
2023/08/21 11:57:16;;;;;;;7.32;2.78;;;46.60;22.90;;;;;;5054251;28;20572;-61
2023/08/21 11:59:43;;;;;;;4.50;2.47;;;46.60;21.90;;;;;;5054455;28;20206;-60
2023/08/21 12:02:16;;;;;;;4.03;1.85;;;46.70;22.10;;;;;;5054282;28;20281;-60
2023/08/21 12:04:43;;;;;;;4.68;2.05;;;46.70;21.80;;;;;;5054470;28;20210;-60
2023/08/21 12:07:11;;;;;;;7.75;2.22;;;46.70;21.20;;;;;;5054384;28;20214;-60
2023/08/21 12:09:38;;;;;;;6.70;2.90;;;46.90;22.50;;;;;;5054063;28;20202;-60
2023/08/21 12:12:06;;;;;;;5.22;2.00;;;47.10;21.50;;;;;;5054351;28;20218;-60
2023/08/21 12:14:32;;;;;;;3.67;1.90;;;47.30;20.90;;;;;;5054323;28;20610;-60
2023/08/21 12:16:59;;;;;;;5.53;2.20;;;47.30;20.30;;;;;;5054164;28;20202;-60
2023/08/21 12:19:26;;;;;;;3.65;2.00;;;47.40;21.10;;;;;;5054123;28;20203;-60
2023/08/21 12:21:52;;;;;;;3.33;2.10;;;47.70;21.50;;;;;;5018645;28;1029482;-60
2023/08/21 12:24:20;;;;;;;5.13;1.98;;;47.90;20.50;;;;;;5054981;28;20234;-61
2023/08/21 12:26:47;;;;;;;5.03;2.25;;;48.00;19.50;;;;;;5054803;28;20726;-60
2023/08/21 12:29:13;;;;;;;6.13;2.60;;;48.00;20.70;;;;;;5054839;28;20721;-60
2023/08/21 12:31:40;;;;;;;4.32;2.10;;;48.20;21.00;;;;;;5054840;28;20599;-60
2023/08/21 12:34:07;;;;;;;4.43;2.50;;;48.40;20.90;;;;;;5054709;28;20673;-60
2023/08/21 12:36:35;;;;;;;4.68;2.20;;;48.70;20.60;;;;;;5054960;28;20213;-60
2023/08/21 12:39:02;;;;;;;5.35;2.03;;;49.00;20.20;;;;;;5054867;28;20202;-60
2023/08/21 12:41:30;;;;;;;5.03;2.17;;;49.20;19.90;;;;;;5054729;28;20230;-60
2023/08/21 12:43:57;;;;;;;5.80;2.17;;;49.20;19.80;;;;;;5054808;28;20218;-60
2023/08/21 12:46:24;;;;;;;4.85;1.80;;;49.00;19.70;;;;;;5054673;28;20203;-60
2023/08/21 12:48:50;;;;;;;5.75;2.13;;;48.90;18.70;;;;;;5054603;28;20208;-60